sensor_id;sensor_type;location;lat;lon;timestamp;P1;durP1;ratioP1;P2;durP2;ratioP2
44925;SDS011;30662;51.210;7.656;2022-11-15T00:00:45;19.50;;;13.05;;
44925;SDS011;30662;51.210;7.656;2022-11-15T00:03:18;18.00;;;13.05;;
44925;SDS011;30662;51.210;7.656;2022-11-15T00:05:48;24.33;;;15.23;;
44925;SDS011;30662;51.210;7.656;2022-11-15T00:08:14;21.63;;;15.25;;
44925;SDS011;30662;51.210;7.656;2022-11-15T00:10:41;20.40;;;14.23;;
44925;SDS011;30662;51.210;7.656;2022-11-15T00:13:08;19.98;;;14.00;;
44925;SDS011;30662;51.210;7.656;2022-11-15T00:15:39;19.85;;;13.25;;
44925;SDS011;30662;51.210;7.656;2022-11-15T00:18:06;19.20;;;14.05;;
44925;SDS011;30662;51.210;7.656;2022-11-15T00:20:38;18.23;;;13.80;;
44925;SDS011;30662;51.210;7.656;2022-11-15T00:23:04;19.33;;;14.32;;
44925;SDS011;30662;51.210;7.656;2022-11-15T00:25:30;15.77;;;12.25;;
44925;SDS011;30662;51.210;7.656;2022-11-15T00:27:56;23.55;;;14.45;;
44925;SDS011;30662;51.210;7.656;2022-11-15T00:30:23;20.45;;;14.45;;
44925;SDS011;30662;51.210;7.656;2022-11-15T00:32:49;18.98;;;13.55;;
44925;SDS011;30662;51.210;7.656;2022-11-15T00:35:15;20.00;;;14.90;;
44925;SDS011;30662;51.210;7.656;2022-11-15T00:37:41;21.65;;;15.45;;
44925;SDS011;30662;51.210;7.656;2022-11-15T00:40:07;20.92;;;13.45;;
44925;SDS011;30662;51.210;7.656;2022-11-15T00:42:33;24.83;;;15.07;;
44925;SDS011;30662;51.210;7.656;2022-11-15T00:44:59;26.65;;;15.55;;
44925;SDS011;30662;51.210;7.656;2022-11-15T00:47:25;20.48;;;15.13;;
44925;SDS011;30662;51.210;7.656;2022-11-15T00:49:51;19.10;;;15.35;;
44925;SDS011;30662;51.210;7.656;2022-11-15T00:52:17;19.95;;;15.55;;
44925;SDS011;30662;51.210;7.656;2022-11-15T00:54:42;23.25;;;15.25;;
44925;SDS011;30662;51.210;7.656;2022-11-15T00:57:08;19.52;;;13.95;;
44925;SDS011;30662;51.210;7.656;2022-11-15T00:59:34;23.95;;;15.48;;
44925;SDS011;30662;51.210;7.656;2022-11-15T01:02:00;20.65;;;16.15;;
44925;SDS011;30662;51.210;7.656;2022-11-15T01:04:26;19.75;;;15.50;;
44925;SDS011;30662;51.210;7.656;2022-11-15T01:06:52;17.35;;;12.82;;
44925;SDS011;30662;51.210;7.656;2022-11-15T01:09:19;18.80;;;14.13;;
44925;SDS011;30662;51.210;7.656;2022-11-15T01:11:45;16.08;;;13.85;;
44925;SDS011;30662;51.210;7.656;2022-11-15T01:14:11;19.52;;;14.57;;
44925;SDS011;30662;51.210;7.656;2022-11-15T01:16:36;18.92;;;13.75;;
44925;SDS011;30662;51.210;7.656;2022-11-15T01:19:02;17.25;;;12.60;;
44925;SDS011;30662;51.210;7.656;2022-11-15T01:21:28;17.27;;;13.48;;
44925;SDS011;30662;51.210;7.656;2022-11-15T01:23:54;15.95;;;13.02;;
44925;SDS011;30662;51.210;7.656;2022-11-15T01:26:22;17.55;;;13.05;;
44925;SDS011;30662;51.210;7.656;2022-11-15T01:28:49;19.08;;;13.18;;
44925;SDS011;30662;51.210;7.656;2022-11-15T01:31:16;15.93;;;12.45;;
44925;SDS011;30662;51.210;7.656;2022-11-15T01:33:44;16.08;;;12.02;;
44925;SDS011;30662;51.210;7.656;2022-11-15T01:36:12;17.25;;;12.32;;
44925;SDS011;30662;51.210;7.656;2022-11-15T01:38:42;19.83;;;14.23;;
44925;SDS011;30662;51.210;7.656;2022-11-15T01:41:17;17.20;;;13.60;;
44925;SDS011;30662;51.210;7.656;2022-11-15T01:43:46;14.80;;;12.65;;
44925;SDS011;30662;51.210;7.656;2022-11-15T01:48:40;14.88;;;12.45;;
44925;SDS011;30662;51.210;7.656;2022-11-15T01:51:07;14.70;;;12.77;;
44925;SDS011;30662;51.210;7.656;2022-11-15T01:53:37;20.50;;;14.55;;
44925;SDS011;30662;51.210;7.656;2022-11-15T01:56:06;20.15;;;14.52;;
44925;SDS011;30662;51.210;7.656;2022-11-15T01:58:34;16.50;;;13.88;;
44925;SDS011;30662;51.210;7.656;2022-11-15T02:01:01;18.90;;;14.32;;
44925;SDS011;30662;51.210;7.656;2022-11-15T02:03:31;16.13;;;12.68;;
44925;SDS011;30662;51.210;7.656;2022-11-15T02:06:05;15.40;;;13.55;;
44925;SDS011;30662;51.210;7.656;2022-11-15T02:08:31;17.02;;;12.80;;
44925;SDS011;30662;51.210;7.656;2022-11-15T02:10:57;15.73;;;12.75;;
44925;SDS011;30662;51.210;7.656;2022-11-15T02:13:22;13.35;;;11.95;;
44925;SDS011;30662;51.210;7.656;2022-11-15T02:18:28;15.85;;;12.18;;
44925;SDS011;30662;51.210;7.656;2022-11-15T02:21:11;17.17;;;12.52;;
44925;SDS011;30662;51.210;7.656;2022-11-15T02:31:51;13.00;;;10.47;;
44925;SDS011;30662;51.210;7.656;2022-11-15T02:34:28;11.80;;;10.52;;
44925;SDS011;30662;51.210;7.656;2022-11-15T02:37:06;11.60;;;9.48;;
44925;SDS011;30662;51.210;7.656;2022-11-15T02:42:19;11.63;;;9.65;;
44925;SDS011;30662;51.210;7.656;2022-11-15T02:45:09;12.70;;;9.27;;
44925;SDS011;30662;51.210;7.656;2022-11-15T02:47:41;13.90;;;9.57;;
44925;SDS011;30662;51.210;7.656;2022-11-15T02:50:11;12.27;;;9.77;;
44925;SDS011;30662;51.210;7.656;2022-11-15T02:52:41;10.27;;;9.18;;
44925;SDS011;30662;51.210;7.656;2022-11-15T02:55:27;13.55;;;9.98;;
44925;SDS011;30662;51.210;7.656;2022-11-15T02:58:07;11.85;;;9.07;;
44925;SDS011;30662;51.210;7.656;2022-11-15T03:00:44;11.38;;;9.32;;
44925;SDS011;30662;51.210;7.656;2022-11-15T03:09:04;11.50;;;9.60;;
44925;SDS011;30662;51.210;7.656;2022-11-15T03:11:41;11.40;;;8.82;;
44925;SDS011;30662;51.210;7.656;2022-11-15T03:20:03;11.77;;;10.40;;
44925;SDS011;30662;51.210;7.656;2022-11-15T03:22:33;10.63;;;9.47;;
44925;SDS011;30662;51.210;7.656;2022-11-15T03:25:04;14.05;;;10.00;;
44925;SDS011;30662;51.210;7.656;2022-11-15T03:27:38;11.00;;;9.63;;
44925;SDS011;30662;51.210;7.656;2022-11-15T03:30:07;10.85;;;9.75;;
44925;SDS011;30662;51.210;7.656;2022-11-15T03:32:35;11.80;;;10.60;;
44925;SDS011;30662;51.210;7.656;2022-11-15T03:37:55;11.68;;;10.20;;
44925;SDS011;30662;51.210;7.656;2022-11-15T03:40:40;12.15;;;9.43;;
44925;SDS011;30662;51.210;7.656;2022-11-15T03:43:14;12.80;;;10.85;;
44925;SDS011;30662;51.210;7.656;2022-11-15T03:45:46;13.13;;;10.65;;
44925;SDS011;30662;51.210;7.656;2022-11-15T03:48:22;11.80;;;10.60;;
44925;SDS011;30662;51.210;7.656;2022-11-15T03:50:51;11.82;;;10.18;;
44925;SDS011;30662;51.210;7.656;2022-11-15T03:53:17;12.48;;;10.38;;
44925;SDS011;30662;51.210;7.656;2022-11-15T03:55:43;12.05;;;9.30;;
44925;SDS011;30662;51.210;7.656;2022-11-15T03:58:09;11.27;;;10.18;;
44925;SDS011;30662;51.210;7.656;2022-11-15T04:00:35;10.98;;;9.95;;
44925;SDS011;30662;51.210;7.656;2022-11-15T04:03:01;11.07;;;9.15;;
44925;SDS011;30662;51.210;7.656;2022-11-15T04:05:27;12.75;;;10.27;;
44925;SDS011;30662;51.210;7.656;2022-11-15T04:07:52;11.43;;;10.25;;
44925;SDS011;30662;51.210;7.656;2022-11-15T04:10:19;10.25;;;9.30;;
44925;SDS011;30662;51.210;7.656;2022-11-15T04:12:45;12.05;;;10.85;;
44925;SDS011;30662;51.210;7.656;2022-11-15T04:15:15;11.38;;;10.18;;
44925;SDS011;30662;51.210;7.656;2022-11-15T04:17:47;15.38;;;11.15;;
44925;SDS011;30662;51.210;7.656;2022-11-15T04:20:18;12.10;;;10.82;;
44925;SDS011;30662;51.210;7.656;2022-11-15T04:23:08;12.95;;;9.68;;
44925;SDS011;30662;51.210;7.656;2022-11-15T04:25:54;10.27;;;9.27;;
44925;SDS011;30662;51.210;7.656;2022-11-15T04:28:22;9.77;;;8.88;;
44925;SDS011;30662;51.210;7.656;2022-11-15T04:30:48;10.60;;;9.50;;
44925;SDS011;30662;51.210;7.656;2022-11-15T04:33:14;10.80;;;8.68;;
44925;SDS011;30662;51.210;7.656;2022-11-15T04:35:40;9.88;;;8.90;;
44925;SDS011;30662;51.210;7.656;2022-11-15T04:38:07;8.10;;;7.30;;
44925;SDS011;30662;51.210;7.656;2022-11-15T04:40:34;8.27;;;7.30;;
44925;SDS011;30662;51.210;7.656;2022-11-15T04:43:02;7.88;;;7.18;;
44925;SDS011;30662;51.210;7.656;2022-11-15T04:45:29;8.45;;;7.65;;
44925;SDS011;30662;51.210;7.656;2022-11-15T04:47:55;8.07;;;7.28;;
44925;SDS011;30662;51.210;7.656;2022-11-15T04:50:21;8.75;;;7.60;;
44925;SDS011;30662;51.210;7.656;2022-11-15T04:52:50;8.98;;;7.70;;
44925;SDS011;30662;51.210;7.656;2022-11-15T04:55:18;9.00;;;7.97;;
44925;SDS011;30662;51.210;7.656;2022-11-15T04:57:44;10.02;;;8.82;;
44925;SDS011;30662;51.210;7.656;2022-11-15T05:00:11;11.50;;;8.30;;
44925;SDS011;30662;51.210;7.656;2022-11-15T05:02:39;10.85;;;9.15;;
44925;SDS011;30662;51.210;7.656;2022-11-15T05:05:23;9.40;;;8.32;;
44925;SDS011;30662;51.210;7.656;2022-11-15T05:07:49;9.65;;;8.68;;
44925;SDS011;30662;51.210;7.656;2022-11-15T05:10:15;11.77;;;9.60;;
44925;SDS011;30662;51.210;7.656;2022-11-15T05:12:42;10.85;;;8.88;;
44925;SDS011;30662;51.210;7.656;2022-11-15T05:15:08;12.57;;;9.52;;
44925;SDS011;30662;51.210;7.656;2022-11-15T05:17:34;12.93;;;9.30;;
44925;SDS011;30662;51.210;7.656;2022-11-15T05:20:00;18.33;;;9.88;;
44925;SDS011;30662;51.210;7.656;2022-11-15T05:22:25;10.90;;;9.75;;
44925;SDS011;30662;51.210;7.656;2022-11-15T05:24:52;12.23;;;9.77;;
44925;SDS011;30662;51.210;7.656;2022-11-15T05:27:18;11.18;;;9.80;;
44925;SDS011;30662;51.210;7.656;2022-11-15T05:29:44;11.13;;;9.98;;
44925;SDS011;30662;51.210;7.656;2022-11-15T05:32:10;13.90;;;9.90;;
44925;SDS011;30662;51.210;7.656;2022-11-15T05:34:37;10.40;;;9.32;;
44925;SDS011;30662;51.210;7.656;2022-11-15T05:37:03;11.52;;;8.68;;
44925;SDS011;30662;51.210;7.656;2022-11-15T05:39:28;10.40;;;8.98;;
44925;SDS011;30662;51.210;7.656;2022-11-15T05:41:55;11.38;;;8.82;;
44925;SDS011;30662;51.210;7.656;2022-11-15T05:44:30;11.98;;;8.30;;
44925;SDS011;30662;51.210;7.656;2022-11-15T05:46:56;8.20;;;7.40;;
44925;SDS011;30662;51.210;7.656;2022-11-15T05:49:23;8.77;;;7.80;;
44925;SDS011;30662;51.210;7.656;2022-11-15T05:51:52;7.38;;;6.60;;
44925;SDS011;30662;51.210;7.656;2022-11-15T05:54:19;7.78;;;6.90;;
44925;SDS011;30662;51.210;7.656;2022-11-15T05:56:47;6.75;;;5.80;;
44925;SDS011;30662;51.210;7.656;2022-11-15T05:59:14;6.20;;;5.60;;
44925;SDS011;30662;51.210;7.656;2022-11-15T06:01:40;5.97;;;5.35;;
44925;SDS011;30662;51.210;7.656;2022-11-15T06:04:06;6.50;;;5.55;;
44925;SDS011;30662;51.210;7.656;2022-11-15T06:06:32;6.07;;;5.55;;
44925;SDS011;30662;51.210;7.656;2022-11-15T06:08:58;5.55;;;5.05;;
44925;SDS011;30662;51.210;7.656;2022-11-15T06:11:23;5.72;;;4.85;;
44925;SDS011;30662;51.210;7.656;2022-11-15T06:13:49;4.85;;;4.35;;
44925;SDS011;30662;51.210;7.656;2022-11-15T06:16:15;6.90;;;4.57;;
44925;SDS011;30662;51.210;7.656;2022-11-15T06:18:41;6.40;;;4.28;;
44925;SDS011;30662;51.210;7.656;2022-11-15T06:21:07;5.40;;;4.47;;
44925;SDS011;30662;51.210;7.656;2022-11-15T06:23:33;6.15;;;4.43;;
44925;SDS011;30662;51.210;7.656;2022-11-15T06:26:00;7.85;;;4.35;;
44925;SDS011;30662;51.210;7.656;2022-11-15T06:28:30;6.88;;;4.72;;
44925;SDS011;30662;51.210;7.656;2022-11-15T06:31:03;4.65;;;4.10;;
44925;SDS011;30662;51.210;7.656;2022-11-15T06:33:34;5.45;;;4.28;;
44925;SDS011;30662;51.210;7.656;2022-11-15T06:36:01;5.32;;;4.28;;
44925;SDS011;30662;51.210;7.656;2022-11-15T06:38:31;4.38;;;3.97;;
44925;SDS011;30662;51.210;7.656;2022-11-15T06:41:04;5.88;;;4.22;;
44925;SDS011;30662;51.210;7.656;2022-11-15T06:43:31;5.97;;;3.92;;
44925;SDS011;30662;51.210;7.656;2022-11-15T06:45:58;4.47;;;4.03;;
44925;SDS011;30662;51.210;7.656;2022-11-15T06:48:25;4.18;;;3.20;;
44925;SDS011;30662;51.210;7.656;2022-11-15T06:50:52;8.35;;;4.13;;
44925;SDS011;30662;51.210;7.656;2022-11-15T06:53:19;4.25;;;3.78;;
44925;SDS011;30662;51.210;7.656;2022-11-15T06:55:45;4.65;;;3.95;;
44925;SDS011;30662;51.210;7.656;2022-11-15T06:58:11;4.53;;;3.67;;
44925;SDS011;30662;51.210;7.656;2022-11-15T07:00:36;4.28;;;3.60;;
44925;SDS011;30662;51.210;7.656;2022-11-15T07:03:02;4.15;;;2.85;;
44925;SDS011;30662;51.210;7.656;2022-11-15T07:05:29;5.30;;;3.33;;
44925;SDS011;30662;51.210;7.656;2022-11-15T07:07:55;6.18;;;2.90;;
44925;SDS011;30662;51.210;7.656;2022-11-15T07:10:23;4.40;;;2.80;;
44925;SDS011;30662;51.210;7.656;2022-11-15T07:12:50;4.65;;;2.58;;
44925;SDS011;30662;51.210;7.656;2022-11-15T07:15:17;5.65;;;3.50;;
44925;SDS011;30662;51.210;7.656;2022-11-15T07:17:44;3.15;;;2.55;;
44925;SDS011;30662;51.210;7.656;2022-11-15T07:20:11;3.08;;;2.50;;
44925;SDS011;30662;51.210;7.656;2022-11-15T07:22:39;3.13;;;2.58;;
44925;SDS011;30662;51.210;7.656;2022-11-15T07:25:05;4.15;;;2.47;;
44925;SDS011;30662;51.210;7.656;2022-11-15T07:27:32;4.43;;;2.40;;
44925;SDS011;30662;51.210;7.656;2022-11-15T07:29:58;3.58;;;2.63;;
44925;SDS011;30662;51.210;7.656;2022-11-15T07:32:24;4.40;;;2.78;;
44925;SDS011;30662;51.210;7.656;2022-11-15T07:34:50;2.40;;;2.20;;
44925;SDS011;30662;51.210;7.656;2022-11-15T07:37:16;3.03;;;2.42;;
44925;SDS011;30662;51.210;7.656;2022-11-15T07:39:42;2.40;;;2.20;;
44925;SDS011;30662;51.210;7.656;2022-11-15T07:42:08;2.92;;;2.28;;
44925;SDS011;30662;51.210;7.656;2022-11-15T07:44:53;4.30;;;2.25;;
44925;SDS011;30662;51.210;7.656;2022-11-15T07:47:19;2.47;;;2.10;;
44925;SDS011;30662;51.210;7.656;2022-11-15T07:49:46;2.00;;;1.55;;
44925;SDS011;30662;51.210;7.656;2022-11-15T07:52:12;3.67;;;1.63;;
44925;SDS011;30662;51.210;7.656;2022-11-15T07:54:39;2.58;;;1.90;;
44925;SDS011;30662;51.210;7.656;2022-11-15T07:57:05;3.67;;;1.60;;
44925;SDS011;30662;51.210;7.656;2022-11-15T07:59:33;2.17;;;1.88;;
44925;SDS011;30662;51.210;7.656;2022-11-15T08:02:00;2.10;;;1.90;;
44925;SDS011;30662;51.210;7.656;2022-11-15T08:04:27;4.32;;;1.60;;
44925;SDS011;30662;51.210;7.656;2022-11-15T08:06:52;2.95;;;1.75;;
44925;SDS011;30662;51.210;7.656;2022-11-15T08:09:18;3.10;;;1.88;;
44925;SDS011;30662;51.210;7.656;2022-11-15T08:11:44;4.03;;;2.15;;
44925;SDS011;30662;51.210;7.656;2022-11-15T08:14:10;2.72;;;1.88;;
44925;SDS011;30662;51.210;7.656;2022-11-15T08:16:36;3.33;;;2.20;;
44925;SDS011;30662;51.210;7.656;2022-11-15T08:19:02;5.40;;;1.95;;
44925;SDS011;30662;51.210;7.656;2022-11-15T08:21:27;3.08;;;2.22;;
44925;SDS011;30662;51.210;7.656;2022-11-15T08:23:53;4.05;;;2.30;;
44925;SDS011;30662;51.210;7.656;2022-11-15T08:26:19;2.40;;;1.98;;
44925;SDS011;30662;51.210;7.656;2022-11-15T08:28:45;2.85;;;1.90;;
44925;SDS011;30662;51.210;7.656;2022-11-15T08:31:20;2.95;;;1.63;;
44925;SDS011;30662;51.210;7.656;2022-11-15T08:33:46;4.07;;;1.90;;
44925;SDS011;30662;51.210;7.656;2022-11-15T08:36:13;3.28;;;1.75;;
44925;SDS011;30662;51.210;7.656;2022-11-15T08:38:40;2.40;;;1.88;;
44925;SDS011;30662;51.210;7.656;2022-11-15T08:41:07;3.13;;;2.30;;
44925;SDS011;30662;51.210;7.656;2022-11-15T08:43:37;3.88;;;2.20;;
44925;SDS011;30662;51.210;7.656;2022-11-15T08:46:03;3.63;;;2.45;;
44925;SDS011;30662;51.210;7.656;2022-11-15T08:48:29;3.97;;;2.10;;
44925;SDS011;30662;51.210;7.656;2022-11-15T08:50:56;4.97;;;2.10;;
44925;SDS011;30662;51.210;7.656;2022-11-15T08:53:22;6.47;;;2.65;;
44925;SDS011;30662;51.210;7.656;2022-11-15T08:55:48;3.10;;;2.70;;
44925;SDS011;30662;51.210;7.656;2022-11-15T08:58:14;3.80;;;2.90;;
44925;SDS011;30662;51.210;7.656;2022-11-15T09:00:40;2.45;;;2.20;;
44925;SDS011;30662;51.210;7.656;2022-11-15T09:03:06;3.35;;;2.45;;
44925;SDS011;30662;51.210;7.656;2022-11-15T09:05:32;3.05;;;2.33;;
44925;SDS011;30662;51.210;7.656;2022-11-15T09:08:01;3.58;;;2.15;;
44925;SDS011;30662;51.210;7.656;2022-11-15T09:10:47;5.10;;;2.15;;
44925;SDS011;30662;51.210;7.656;2022-11-15T09:13:13;3.88;;;2.30;;
44925;SDS011;30662;51.210;7.656;2022-11-15T09:15:39;4.38;;;2.10;;
44925;SDS011;30662;51.210;7.656;2022-11-15T09:18:05;2.78;;;1.70;;
44925;SDS011;30662;51.210;7.656;2022-11-15T09:20:31;3.25;;;2.20;;
44925;SDS011;30662;51.210;7.656;2022-11-15T09:23:00;2.25;;;2.00;;
44925;SDS011;30662;51.210;7.656;2022-11-15T09:25:26;2.10;;;1.90;;
44925;SDS011;30662;51.210;7.656;2022-11-15T09:27:52;3.35;;;2.20;;
44925;SDS011;30662;51.210;7.656;2022-11-15T09:30:19;5.00;;;2.15;;
44925;SDS011;30662;51.210;7.656;2022-11-15T09:32:44;4.93;;;2.47;;
44925;SDS011;30662;51.210;7.656;2022-11-15T09:35:10;3.17;;;1.75;;
44925;SDS011;30662;51.210;7.656;2022-11-15T09:37:36;3.72;;;1.77;;
44925;SDS011;30662;51.210;7.656;2022-11-15T09:40:03;2.42;;;1.80;;
44925;SDS011;30662;51.210;7.656;2022-11-15T09:42:47;5.25;;;2.15;;
44925;SDS011;30662;51.210;7.656;2022-11-15T09:53:21;6.15;;;1.58;;
44925;SDS011;30662;51.210;7.656;2022-11-15T09:56:18;2.80;;;1.58;;
44925;SDS011;30662;51.210;7.656;2022-11-15T10:04:09;3.85;;;1.80;;
44925;SDS011;30662;51.210;7.656;2022-11-15T10:06:39;2.05;;;1.58;;
44925;SDS011;30662;51.210;7.656;2022-11-15T10:27:50;1.38;;;0.80;;
44925;SDS011;30662;51.210;7.656;2022-11-15T10:30:20;3.67;;;1.42;;
44925;SDS011;30662;51.210;7.656;2022-11-15T10:32:46;2.95;;;1.02;;
44925;SDS011;30662;51.210;7.656;2022-11-15T10:35:17;1.38;;;0.90;;
44925;SDS011;30662;51.210;7.656;2022-11-15T10:37:43;1.85;;;0.60;;
44925;SDS011;30662;51.210;7.656;2022-11-15T10:40:22;1.27;;;0.75;;
44925;SDS011;30662;51.210;7.656;2022-11-15T10:43:04;2.15;;;0.93;;
44925;SDS011;30662;51.210;7.656;2022-11-15T10:45:38;5.53;;;1.00;;
44925;SDS011;30662;51.210;7.656;2022-11-15T10:50:42;6.05;;;1.13;;
44925;SDS011;30662;51.210;7.656;2022-11-15T10:53:23;2.08;;;1.08;;
44925;SDS011;30662;51.210;7.656;2022-11-15T10:56:07;3.35;;;0.85;;
44925;SDS011;30662;51.210;7.656;2022-11-15T10:58:41;2.75;;;1.00;;
44925;SDS011;30662;51.210;7.656;2022-11-15T11:03:39;1.33;;;0.80;;
44925;SDS011;30662;51.210;7.656;2022-11-15T11:08:38;2.22;;;0.93;;
44925;SDS011;30662;51.210;7.656;2022-11-15T11:11:04;3.05;;;0.95;;
44925;SDS011;30662;51.210;7.656;2022-11-15T11:13:33;2.03;;;0.77;;
44925;SDS011;30662;51.210;7.656;2022-11-15T11:16:20;1.45;;;0.80;;
44925;SDS011;30662;51.210;7.656;2022-11-15T11:24:44;2.40;;;1.48;;
44925;SDS011;30662;51.210;7.656;2022-11-15T11:40:40;0.98;;;0.70;;
44925;SDS011;30662;51.210;7.656;2022-11-15T11:45:44;1.30;;;0.88;;
44925;SDS011;30662;51.210;7.656;2022-11-15T11:51:18;1.48;;;0.80;;
44925;SDS011;30662;51.210;7.656;2022-11-15T11:53:51;2.15;;;0.95;;
44925;SDS011;30662;51.210;7.656;2022-11-15T11:56:27;2.17;;;1.00;;
44925;SDS011;30662;51.210;7.656;2022-11-15T11:58:56;3.72;;;0.82;;
44925;SDS011;30662;51.210;7.656;2022-11-15T12:02:01;1.60;;;0.80;;
44925;SDS011;30662;51.210;7.656;2022-11-15T12:06:53;1.52;;;0.77;;
44925;SDS011;30662;51.210;7.656;2022-11-15T12:12:13;2.13;;;0.82;;
44925;SDS011;30662;51.210;7.656;2022-11-15T12:17:26;1.65;;;0.60;;
44925;SDS011;30662;51.210;7.656;2022-11-15T12:19:58;1.85;;;0.68;;
44925;SDS011;30662;51.210;7.656;2022-11-15T12:22:47;1.85;;;0.80;;
44925;SDS011;30662;51.210;7.656;2022-11-15T12:25:22;1.85;;;0.70;;
44925;SDS011;30662;51.210;7.656;2022-11-15T12:30:44;3.03;;;0.90;;
44925;SDS011;30662;51.210;7.656;2022-11-15T12:38:51;3.60;;;1.00;;
44925;SDS011;30662;51.210;7.656;2022-11-15T12:41:18;3.63;;;1.08;;
44925;SDS011;30662;51.210;7.656;2022-11-15T12:43:46;2.30;;;1.17;;
44925;SDS011;30662;51.210;7.656;2022-11-15T12:46:24;2.38;;;1.45;;
44925;SDS011;30662;51.210;7.656;2022-11-15T12:49:41;2.35;;;0.95;;
44925;SDS011;30662;51.210;7.656;2022-11-15T13:02:33;4.45;;;1.33;;
44925;SDS011;30662;51.210;7.656;2022-11-15T13:22:43;3.58;;;1.30;;
44925;SDS011;30662;51.210;7.656;2022-11-15T13:27:48;2.10;;;1.05;;
44925;SDS011;30662;51.210;7.656;2022-11-15T13:30:18;4.32;;;0.90;;
44925;SDS011;30662;51.210;7.656;2022-11-15T13:32:47;4.38;;;1.35;;
44925;SDS011;30662;51.210;7.656;2022-11-15T13:35:24;1.77;;;1.23;;
44925;SDS011;30662;51.210;7.656;2022-11-15T13:37:52;2.50;;;1.25;;
44925;SDS011;30662;51.210;7.656;2022-11-15T13:40:24;4.10;;;1.13;;
44925;SDS011;30662;51.210;7.656;2022-11-15T13:42:56;5.30;;;2.08;;
44925;SDS011;30662;51.210;7.656;2022-11-15T13:45:23;4.85;;;1.20;;
44925;SDS011;30662;51.210;7.656;2022-11-15T13:47:53;4.45;;;1.23;;
44925;SDS011;30662;51.210;7.656;2022-11-15T13:50:22;4.90;;;1.13;;
44925;SDS011;30662;51.210;7.656;2022-11-15T13:52:52;4.38;;;1.30;;
44925;SDS011;30662;51.210;7.656;2022-11-15T13:55:22;2.05;;;1.00;;
44925;SDS011;30662;51.210;7.656;2022-11-15T13:57:57;2.13;;;1.02;;
44925;SDS011;30662;51.210;7.656;2022-11-15T14:00:41;4.90;;;1.05;;
44925;SDS011;30662;51.210;7.656;2022-11-15T14:05:39;1.70;;;1.02;;
44925;SDS011;30662;51.210;7.656;2022-11-15T14:08:20;3.00;;;1.17;;
44925;SDS011;30662;51.210;7.656;2022-11-15T14:11:04;2.35;;;1.50;;
44925;SDS011;30662;51.210;7.656;2022-11-15T14:16:39;4.45;;;1.73;;
44925;SDS011;30662;51.210;7.656;2022-11-15T14:19:09;2.35;;;1.50;;
44925;SDS011;30662;51.210;7.656;2022-11-15T14:21:37;3.38;;;1.52;;
44925;SDS011;30662;51.210;7.656;2022-11-15T14:24:45;4.95;;;1.17;;
44925;SDS011;30662;51.210;7.656;2022-11-15T14:29:52;2.33;;;1.42;;
44925;SDS011;30662;51.210;7.656;2022-11-15T14:32:20;5.70;;;2.60;;
44925;SDS011;30662;51.210;7.656;2022-11-15T14:34:48;5.70;;;2.13;;
44925;SDS011;30662;51.210;7.656;2022-11-15T14:39:52;2.55;;;1.40;;
44925;SDS011;30662;51.210;7.656;2022-11-15T14:42:19;3.13;;;1.55;;
44925;SDS011;30662;51.210;7.656;2022-11-15T14:44:45;4.05;;;2.08;;
44925;SDS011;30662;51.210;7.656;2022-11-15T14:47:11;1.35;;;1.20;;
44925;SDS011;30662;51.210;7.656;2022-11-15T14:49:38;1.98;;;1.45;;
44925;SDS011;30662;51.210;7.656;2022-11-15T14:52:19;3.95;;;1.67;;
44925;SDS011;30662;51.210;7.656;2022-11-15T14:54:57;4.15;;;1.95;;
44925;SDS011;30662;51.210;7.656;2022-11-15T14:57:24;3.65;;;1.02;;
44925;SDS011;30662;51.210;7.656;2022-11-15T14:59:50;5.25;;;1.48;;
44925;SDS011;30662;51.210;7.656;2022-11-15T15:02:21;3.70;;;1.33;;
44925;SDS011;30662;51.210;7.656;2022-11-15T15:04:48;4.32;;;1.50;;
44925;SDS011;30662;51.210;7.656;2022-11-15T15:07:15;2.92;;;1.35;;
44925;SDS011;30662;51.210;7.656;2022-11-15T15:09:41;4.63;;;1.35;;
44925;SDS011;30662;51.210;7.656;2022-11-15T15:12:15;4.03;;;1.85;;
44925;SDS011;30662;51.210;7.656;2022-11-15T15:14:43;2.42;;;1.30;;
44925;SDS011;30662;51.210;7.656;2022-11-15T15:17:09;2.10;;;1.25;;
44925;SDS011;30662;51.210;7.656;2022-11-15T15:19:35;3.90;;;1.17;;
44925;SDS011;30662;51.210;7.656;2022-11-15T15:22:01;4.70;;;1.45;;
44925;SDS011;30662;51.210;7.656;2022-11-15T15:24:27;2.33;;;1.48;;
44925;SDS011;30662;51.210;7.656;2022-11-15T15:26:53;2.55;;;0.95;;
44925;SDS011;30662;51.210;7.656;2022-11-15T15:29:19;1.88;;;1.10;;
44925;SDS011;30662;51.210;7.656;2022-11-15T15:31:45;3.03;;;1.20;;
44925;SDS011;30662;51.210;7.656;2022-11-15T15:34:11;3.53;;;1.30;;
44925;SDS011;30662;51.210;7.656;2022-11-15T15:36:42;2.05;;;1.73;;
44925;SDS011;30662;51.210;7.656;2022-11-15T15:39:08;6.45;;;3.67;;
44925;SDS011;30662;51.210;7.656;2022-11-15T15:41:36;2.33;;;1.60;;
44925;SDS011;30662;51.210;7.656;2022-11-15T15:44:02;2.95;;;1.30;;
44925;SDS011;30662;51.210;7.656;2022-11-15T15:46:28;4.20;;;1.45;;
44925;SDS011;30662;51.210;7.656;2022-11-15T15:48:54;2.25;;;1.80;;
44925;SDS011;30662;51.210;7.656;2022-11-15T15:51:20;2.42;;;1.30;;
44925;SDS011;30662;51.210;7.656;2022-11-15T15:53:46;2.03;;;1.30;;
44925;SDS011;30662;51.210;7.656;2022-11-15T15:56:13;5.00;;;1.60;;
44925;SDS011;30662;51.210;7.656;2022-11-15T15:58:39;2.00;;;1.77;;
44925;SDS011;30662;51.210;7.656;2022-11-15T16:01:04;3.22;;;1.40;;
44925;SDS011;30662;51.210;7.656;2022-11-15T16:03:31;1.73;;;1.27;;
44925;SDS011;30662;51.210;7.656;2022-11-15T16:05:56;2.50;;;1.63;;
44925;SDS011;30662;51.210;7.656;2022-11-15T16:08:23;2.92;;;1.40;;
44925;SDS011;30662;51.210;7.656;2022-11-15T16:10:51;4.07;;;1.55;;
44925;SDS011;30662;51.210;7.656;2022-11-15T16:13:17;2.10;;;1.40;;
44925;SDS011;30662;51.210;7.656;2022-11-15T16:15:43;4.57;;;1.92;;
44925;SDS011;30662;51.210;7.656;2022-11-15T16:18:14;2.70;;;1.40;;
44925;SDS011;30662;51.210;7.656;2022-11-15T16:20:43;1.77;;;1.58;;
44925;SDS011;30662;51.210;7.656;2022-11-15T16:23:12;2.92;;;1.63;;
44925;SDS011;30662;51.210;7.656;2022-11-15T16:25:50;2.70;;;1.40;;
44925;SDS011;30662;51.210;7.656;2022-11-15T16:28:19;2.53;;;1.30;;
44925;SDS011;30662;51.210;7.656;2022-11-15T16:30:58;1.92;;;1.30;;
44925;SDS011;30662;51.210;7.656;2022-11-15T16:33:34;2.90;;;1.60;;
44925;SDS011;30662;51.210;7.656;2022-11-15T16:36:01;2.83;;;1.50;;
44925;SDS011;30662;51.210;7.656;2022-11-15T16:38:28;1.67;;;1.38;;
44925;SDS011;30662;51.210;7.656;2022-11-15T16:40:54;2.47;;;1.70;;
44925;SDS011;30662;51.210;7.656;2022-11-15T16:43:20;2.40;;;1.50;;
44925;SDS011;30662;51.210;7.656;2022-11-15T16:45:46;2.83;;;1.67;;
44925;SDS011;30662;51.210;7.656;2022-11-15T16:48:21;2.85;;;1.88;;
44925;SDS011;30662;51.210;7.656;2022-11-15T16:50:55;2.03;;;1.30;;
44925;SDS011;30662;51.210;7.656;2022-11-15T16:53:23;1.67;;;1.50;;
44925;SDS011;30662;51.210;7.656;2022-11-15T16:55:49;2.95;;;2.40;;
44925;SDS011;30662;51.210;7.656;2022-11-15T16:58:15;1.92;;;1.40;;
44925;SDS011;30662;51.210;7.656;2022-11-15T17:00:41;2.17;;;1.58;;
44925;SDS011;30662;51.210;7.656;2022-11-15T17:03:07;2.30;;;1.30;;
44925;SDS011;30662;51.210;7.656;2022-11-15T17:05:33;2.05;;;1.85;;
44925;SDS011;30662;51.210;7.656;2022-11-15T17:07:59;1.75;;;1.30;;
44925;SDS011;30662;51.210;7.656;2022-11-15T17:10:25;3.05;;;1.65;;
44925;SDS011;30662;51.210;7.656;2022-11-15T17:12:51;2.42;;;1.80;;
44925;SDS011;30662;51.210;7.656;2022-11-15T17:15:19;4.75;;;1.67;;
44925;SDS011;30662;51.210;7.656;2022-11-15T17:17:52;2.03;;;1.45;;
44925;SDS011;30662;51.210;7.656;2022-11-15T17:20:20;2.55;;;1.80;;
44925;SDS011;30662;51.210;7.656;2022-11-15T17:22:48;2.35;;;1.60;;
44925;SDS011;30662;51.210;7.656;2022-11-15T17:25:14;3.25;;;1.88;;